Time;durP1;ratioP1;P1;durP2;ratioP2;P2;SDS_P1;SDS_P2;PMS_P1;PMS_P2;Temp;Humidity;BMP_temperature;BMP_pressure;BME280_temperature;BME280_humidity;BME280_pressure;Samples;Min_cycle;Max_cycle;Signal;HPM_P1;HPM_P2
2023/07/31 00:02:34;;;;;;;5.68;2.65;;;13.20;1.00;;;;;;5011523;28;20086;-89
2023/07/31 00:05:22;;;;;;;5.28;2.20;;;13.40;1.00;;;;;;5008484;28;20141;-88
2023/07/31 00:08:09;;;;;;;5.65;2.22;;;13.50;1.00;;;;;;5006427;28;20050;-87
2023/07/31 00:10:57;;;;;;;14.98;2.63;;;13.50;99.90;;;;;;5006007;28;20457;-88
2023/07/31 00:13:44;;;;;;;7.18;2.58;;;13.50;99.90;;;;;;5008341;28;20050;-88
2023/07/31 00:16:31;;;;;;;6.50;2.40;;;13.60;68.10;;;;;;5003434;28;20372;-87
2023/07/31 00:19:19;;;;;;;8.48;2.90;;;13.60;12.20;;;;;;5008585;28;20034;-88
2023/07/31 00:22:08;;;;;;;7.95;2.40;;;13.70;1.00;;;;;;5013053;28;20649;-90
2023/07/31 00:24:57;;;;;;;11.88;2.60;;;13.60;1.00;;;;;;5017670;28;20045;-90
2023/07/31 00:27:45;;;;;;;7.00;2.38;;;13.60;1.00;;;;;;5010740;28;20056;-89
2023/07/31 00:30:33;;;;;;;6.60;2.35;;;13.50;1.00;;;;;;5010028;28;20054;-88
2023/07/31 00:33:20;;;;;;;7.40;2.65;;;13.40;35.00;;;;;;5005372;28;20046;-91
2023/07/31 00:36:10;;;;;;;8.05;2.63;;;13.40;31.50;;;;;;5012888;28;20786;-88
2023/07/31 00:38:57;;;;;;;11.02;2.70;;;13.40;38.90;;;;;;5002778;28;20057;-90
2023/07/31 00:41:44;;;;;;;10.02;3.15;;;13.40;99.90;;;;;;5002425;28;20136;-89
2023/07/31 00:44:31;;;;;;;7.30;2.50;;;13.30;99.90;;;;;;5007784;28;20390;-87
2023/07/31 00:47:19;;;;;;;8.70;2.53;;;13.30;99.90;;;;;;5003239;28;20057;-89
2023/07/31 00:50:07;;;;;;;8.30;2.85;;;13.30;99.90;;;;;;5004490;28;20835;-91
2023/07/31 00:52:56;;;;;;;13.05;2.60;;;13.30;99.90;;;;;;5003838;28;20042;-89
2023/07/31 00:55:45;;;;;;;4.18;2.35;;;13.30;99.90;;;;;;5011025;28;20053;-87
2023/07/31 00:58:32;;;;;;;4.25;2.17;;;13.30;99.90;;;;;;5010778;28;20053;-89
2023/07/31 01:01:22;;;;;;;6.15;2.08;;;13.30;99.90;;;;;;5009821;28;20430;-88
2023/07/31 01:04:15;;;;;;;5.70;2.38;;;13.40;99.90;;;;;;5012218;28;20054;-84
2023/07/31 01:07:19;;;;;;;2.53;1.80;;;13.50;99.90;;;;;;5003131;28;20045;-88
2023/07/31 01:10:24;;;;;;;9.85;2.72;;;13.50;1.00;;;;;;5011559;28;20046;-89
2023/07/31 01:13:12;;;;;;;8.82;2.60;;;13.50;1.00;;;;;;5007089;28;20065;-89
2023/07/31 01:16:01;;;;;;;4.32;2.50;;;13.60;1.00;;;;;;5005938;28;20587;-90
2023/07/31 01:18:49;;;;;;;6.45;2.10;;;13.60;1.00;;;;;;5012552;28;20136;-88
2023/07/31 01:21:36;;;;;;;8.48;2.35;;;13.60;1.00;;;;;;5012162;28;20167;-89
2023/07/31 01:24:31;;;;;;;3.88;2.10;;;13.60;1.00;;;;;;5010290;28;20057;-86
2023/07/31 01:27:30;;;;;;;6.15;2.50;;;13.70;99.90;;;;;;5008483;28;20068;-90
2023/07/31 01:30:25;;;;;;;5.78;2.67;;;13.70;99.90;;;;;;5007126;28;20050;-89
2023/07/31 01:33:16;;;;;;;4.88;2.60;;;13.70;99.90;;;;;;5001879;28;20046;-91
2023/07/31 01:36:06;;;;;;;5.57;2.22;;;13.60;99.90;;;;;;5020234;28;20034;-91
2023/07/31 01:38:59;;;;;;;4.68;2.35;;;13.60;99.90;;;;;;5013191;28;20064;-87
2023/07/31 01:41:48;;;;;;;9.25;2.45;;;13.60;99.90;;;;;;5019226;28;20054;-90
2023/07/31 01:44:39;;;;;;;5.53;2.40;;;13.60;99.90;;;;;;5041522;28;20046;-86
2023/07/31 01:47:27;;;;;;;3.80;2.03;;;13.60;99.90;;;;;;5016437;28;20125;-87
2023/07/31 01:50:21;;;;;;;5.55;1.85;;;13.70;99.90;;;;;;5012489;28;20054;-89
2023/07/31 01:53:09;;;;;;;4.72;2.33;;;13.70;99.90;;;;;;5021715;28;20120;-89
2023/07/31 01:55:56;;;;;;;6.20;2.70;;;13.70;99.90;;;;;;5002441;28;20046;-89
2023/07/31 01:58:45;;;;;;;4.43;1.95;;;13.60;99.90;;;;;;5008322;28;20046;-90
2023/07/31 02:01:32;;;;;;;6.38;2.50;;;13.40;99.90;;;;;;5005312;28;20046;-89
2023/07/31 02:04:20;;;;;;;7.90;2.30;;;13.30;99.90;;;;;;5004034;28;20410;-89
2023/07/31 02:07:07;;;;;;;5.15;2.10;;;13.20;1.00;;;;;;4998904;28;20057;-91
2023/07/31 02:09:56;;;;;;;7.63;2.65;;;13.20;1.00;;;;;;5003325;28;20057;-90
2023/07/31 02:12:46;;;;;;;6.25;2.83;;;13.30;1.00;;;;;;5012050;28;20042;-86
2023/07/31 02:15:34;;;;;;;5.00;2.25;;;13.40;1.00;;;;;;5000505;28;20052;-89
2023/07/31 02:18:22;;;;;;;4.85;2.42;;;13.30;1.00;;;;;;4999194;28;20054;-88
2023/07/31 02:21:09;;;;;;;4.25;2.00;;;13.30;1.00;;;;;;5001577;28;20065;-88
2023/07/31 02:23:56;;;;;;;6.28;2.58;;;13.30;1.00;;;;;;5006430;28;20433;-88
2023/07/31 02:26:43;;;;;;;9.55;2.30;;;13.20;1.00;;;;;;5007781;28;20045;-88
2023/07/31 02:29:33;;;;;;;6.95;2.60;;;13.20;1.00;;;;;;5005938;28;20041;-89
2023/07/31 02:32:20;;;;;;;6.15;2.67;;;13.20;25.80;;;;;;5011143;28;20038;-87
2023/07/31 02:35:08;;;;;;;5.25;2.40;;;13.20;65.00;;;;;;5009372;28;20129;-89
2023/07/31 02:37:55;;;;;;;9.70;2.58;;;13.20;65.00;;;;;;5010174;28;20054;-89
2023/07/31 02:40:42;;;;;;;5.80;2.55;;;13.20;76.10;;;;;;5005612;28;20053;-87
2023/07/31 02:43:32;;;;;;;6.53;2.60;;;13.20;50.50;;;;;;4994766;28;20051;-89
2023/07/31 02:46:19;;;;;;;5.07;2.03;;;13.20;42.20;;;;;;5010947;28;20046;-87
2023/07/31 02:49:07;;;;;;;6.40;2.65;;;13.20;1.00;;;;;;5003934;28;20061;-88
2023/07/31 02:51:54;;;;;;;7.07;2.50;;;13.20;1.00;;;;;;5011271;28;20046;-89
2023/07/31 02:54:41;;;;;;;9.13;2.80;;;13.20;1.00;;;;;;5013006;28;20053;-87
2023/07/31 02:57:28;;;;;;;9.07;2.30;;;13.20;1.00;;;;;;5005333;28;20041;-89
2023/07/31 03:00:16;;;;;;;7.05;2.30;;;13.20;1.00;;;;;;5006173;28;20053;-89
2023/07/31 03:03:07;;;;;;;6.22;2.40;;;13.20;1.00;;;;;;5014734;28;20050;-87
2023/07/31 03:05:54;;;;;;;6.70;2.47;;;13.20;1.00;;;;;;5017020;28;20074;-87
2023/07/31 03:08:42;;;;;;;5.05;2.30;;;13.30;1.00;;;;;;4996290;28;20061;-88
2023/07/31 03:11:29;;;;;;;5.10;2.30;;;13.30;99.90;;;;;;5005841;28;20042;-88
2023/07/31 03:14:16;;;;;;;5.03;2.65;;;13.40;99.90;;;;;;5010634;28;20064;-86
2023/07/31 03:17:04;;;;;;;7.60;2.63;;;13.40;99.90;;;;;;5000116;28;20173;-86
2023/07/31 03:19:53;;;;;;;7.60;2.45;;;13.50;99.90;;;;;;5002119;28;20059;-90
2023/07/31 03:22:40;;;;;;;3.78;1.98;;;13.60;99.90;;;;;;5011919;28;20065;-88
2023/07/31 03:25:28;;;;;;;6.28;2.38;;;13.60;99.90;;;;;;5016018;28;20073;-86
2023/07/31 03:28:15;;;;;;;5.88;2.58;;;13.60;99.90;;;;;;5015552;28;20346;-88
2023/07/31 03:31:02;;;;;;;3.10;1.90;;;13.60;92.50;;;;;;5009051;28;20121;-88
2023/07/31 03:33:49;;;;;;;9.85;2.80;;;13.60;85.10;;;;;;5003442;28;20053;-86
2023/07/31 03:36:37;;;;;;;6.28;2.67;;;13.50;94.70;;;;;;5008681;28;20057;-88
2023/07/31 03:39:25;;;;;;;4.93;2.30;;;13.50;99.90;;;;;;5004508;28;20412;-88
2023/07/31 03:42:12;;;;;;;3.78;2.30;;;13.50;99.90;;;;;;5007479;28;20049;-89
2023/07/31 03:44:59;;;;;;;4.35;1.85;;;13.60;94.50;;;;;;5008388;28;20050;-88
2023/07/31 03:47:46;;;;;;;4.70;2.20;;;13.60;65.40;;;;;;5002327;28;20046;-86
2023/07/31 03:50:34;;;;;;;5.68;2.63;;;13.70;49.40;;;;;;5013476;28;20046;-89
2023/07/31 03:53:21;;;;;;;4.07;2.05;;;13.70;26.90;;;;;;5003352;28;20038;-87
2023/07/31 03:56:08;;;;;;;5.32;2.38;;;13.70;25.40;;;;;;5007750;28;20135;-90
2023/07/31 03:58:56;;;;;;;9.70;2.42;;;13.70;27.20;;;;;;5016080;28;20362;-86
2023/07/31 04:01:55;;;;;;;6.20;2.70;;;13.80;12.50;;;;;;5006776;28;20042;-87
2023/07/31 04:04:56;;;;;;;8.45;2.58;;;13.80;1.00;;;;;;5006465;28;20046;-87
2023/07/31 04:07:44;;;;;;;4.53;2.25;;;13.80;1.00;;;;;;5009031;28;20154;-89
2023/07/31 04:10:33;;;;;;;6.70;2.45;;;13.80;1.00;;;;;;5012297;28;20069;-90
2023/07/31 04:13:22;;;;;;;8.05;2.50;;;13.90;1.00;;;;;;5011394;28;20046;-88
2023/07/31 04:16:09;;;;;;;5.43;2.22;;;13.90;1.00;;;;;;5002958;28;20402;-88
2023/07/31 04:18:56;;;;;;;4.95;1.98;;;14.00;1.00;;;;;;5004718;28;20133;-87
2023/07/31 04:21:46;;;;;;;10.55;2.50;;;13.90;1.00;;;;;;5007266;28;20373;-81
2023/07/31 04:24:33;;;;;;;8.32;2.38;;;13.90;1.00;;;;;;5009306;28;20066;-83
2023/07/31 04:27:20;;;;;;;9.50;2.65;;;13.90;1.00;;;;;;5014265;28;20050;-81
2023/07/31 04:30:08;;;;;;;7.07;2.40;;;13.90;1.00;;;;;;5008669;28;20145;-83
2023/07/31 04:32:55;;;;;;;4.25;1.90;;;14.00;1.00;;;;;;5010538;28;20049;-82
2023/07/31 04:35:52;;;;;;;3.17;2.17;;;14.00;1.00;;;;;;5009942;28;20393;-81
2023/07/31 04:38:40;;;;;;;7.15;2.92;;;14.10;1.00;;;;;;5004779;28;20700;-82
2023/07/31 04:41:28;;;;;;;5.43;2.22;;;14.20;99.90;;;;;;5003756;28;20069;-81
2023/07/31 04:44:15;;;;;;;9.68;2.30;;;14.20;99.90;;;;;;4995527;28;20057;-83
2023/07/31 04:47:02;;;;;;;5.65;2.35;;;14.20;99.90;;;;;;5005830;28;20496;-81
2023/07/31 04:49:52;;;;;;;5.50;1.90;;;14.20;99.90;;;;;;5008103;28;20053;-84
2023/07/31 04:52:41;;;;;;;4.68;2.03;;;14.20;99.90;;;;;;5015371;28;20042;-88
2023/07/31 04:55:28;;;;;;;3.83;2.38;;;14.30;99.90;;;;;;5008816;28;20046;-85
2023/07/31 04:58:16;;;;;;;5.50;2.35;;;14.30;99.90;;;;;;5008548;28;20082;-88
2023/07/31 05:01:03;;;;;;;8.38;2.80;;;14.40;99.90;;;;;;5010955;28;20504;-87
2023/07/31 05:03:50;;;;;;;10.73;4.30;;;14.40;99.90;;;;;;5007766;28;20046;-86
2023/07/31 05:06:42;;;;;;;6.32;2.30;;;14.40;99.90;;;;;;5008931;28;20363;-87
2023/07/31 05:09:29;;;;;;;4.50;2.30;;;14.40;99.90;;;;;;5012080;28;20421;-86
2023/07/31 05:12:18;;;;;;;5.93;2.05;;;14.50;99.90;;;;;;5009932;28;20061;-86
2023/07/31 05:15:06;;;;;;;5.78;2.28;;;14.50;99.90;;;;;;4998497;28;20062;-85
2023/07/31 05:17:53;;;;;;;5.70;2.67;;;14.40;99.90;;;;;;5002526;28;20497;-87
2023/07/31 05:20:41;;;;;;;5.20;2.38;;;14.40;99.90;;;;;;4999760;28;20046;-86
2023/07/31 05:23:29;;;;;;;4.40;2.63;;;14.40;99.90;;;;;;5007609;28;20046;-87
2023/07/31 05:26:16;;;;;;;6.25;2.90;;;14.40;99.90;;;;;;5005917;28;20046;-85
2023/07/31 05:29:05;;;;;;;5.05;2.70;;;14.50;99.90;;;;;;5012653;28;20077;-87
2023/07/31 05:31:52;;;;;;;5.38;2.28;;;14.50;99.90;;;;;;5014500;28;20048;-86
2023/07/31 05:34:40;;;;;;;5.75;2.13;;;14.50;99.90;;;;;;5011363;28;20046;-88
2023/07/31 05:37:29;;;;;;;4.43;2.05;;;14.50;99.90;;;;;;5015324;28;20069;-90
2023/07/31 05:40:16;;;;;;;5.45;2.10;;;14.60;99.90;;;;;;5009765;28;20042;-92
2023/07/31 05:43:28;;;;;;;5.63;2.40;;;14.60;99.90;;;;;;5019576;28;20052;-91
2023/07/31 05:46:16;;;;;;;8.63;2.65;;;14.80;99.90;;;;;;5013437;28;20065;-89
2023/07/31 05:53:11;;;;;;;7.55;2.40;;;15.20;99.90;;;;;;5012256;28;20042;-84
2023/07/31 05:55:58;;;;;;;5.93;2.20;;;15.20;99.90;;;;;;5025688;28;20566;-90
2023/07/31 05:58:46;;;;;;;229.38;141.00;;;15.30;99.90;;;;;;5009366;28;20145;-86
2023/07/31 06:01:33;;;;;;;5.60;2.58;;;15.30;99.90;;;;;;5006603;28;20054;-91
2023/07/31 06:04:20;;;;;;;10.77;2.58;;;15.30;99.90;;;;;;5012391;28;20034;-87
2023/07/31 06:07:13;;;;;;;9.20;2.63;;;15.40;99.90;;;;;;5004176;28;20050;-89
2023/07/31 06:10:05;;;;;;;5.32;2.40;;;15.40;99.90;;;;;;5011698;28;20064;-92
2023/07/31 06:12:59;;;;;;;5.35;2.17;;;15.40;99.90;;;;;;5007095;28;20158;-91
2023/07/31 06:15:49;;;;;;;6.28;2.10;;;15.40;99.90;;;;;;5014737;28;20053;-89
2023/07/31 06:18:36;;;;;;;5.07;2.13;;;15.50;99.90;;;;;;5010930;28;20073;-85
2023/07/31 06:21:43;;;;;;;7.00;2.03;;;15.60;99.90;;;;;;5011190;28;20045;-87
2023/07/31 06:24:32;;;;;;;8.52;2.85;;;15.60;99.90;;;;;;5007143;28;20065;-91
2023/07/31 06:27:23;;;;;;;5.15;2.47;;;15.70;99.90;;;;;;5006038;28;20050;-90
2023/07/31 06:30:11;;;;;;;7.95;2.50;;;15.80;99.90;;;;;;5004602;28;20047;-86
2023/07/31 06:33:01;;;;;;;5.53;2.70;;;15.80;99.70;;;;;;5013813;28;20034;-89
2023/07/31 06:35:48;;;;;;;5.55;2.33;;;15.90;92.00;;;;;;5000449;28;20034;-87
2023/07/31 06:38:37;;;;;;;5.75;1.92;;;15.90;77.60;;;;;;5014775;28;20485;-88
2023/07/31 06:41:24;;;;;;;4.45;2.40;;;16.20;43.60;;;;;;5008528;28;20705;-86
2023/07/31 06:44:11;;;;;;;5.22;2.22;;;16.40;13.90;;;;;;5001285;28;20468;-88
2023/07/31 06:47:01;;;;;;;5.47;2.58;;;16.50;1.00;;;;;;5010756;28;20053;-92
2023/07/31 06:49:48;;;;;;;5.80;2.15;;;16.70;1.00;;;;;;5011193;28;20070;-90
2023/07/31 06:52:40;;;;;;;8.70;2.30;;;16.90;1.00;;;;;;5023599;28;20049;-90
2023/07/31 06:55:37;;;;;;;3.58;2.00;;;17.00;1.00;;;;;;5018482;28;20048;-91
2023/07/31 06:58:24;;;;;;;9.60;1.98;;;17.10;1.00;;;;;;4995700;28;20066;-88
2023/07/31 07:01:13;;;;;;;4.25;2.08;;;17.00;1.00;;;;;;5008436;28;20144;-90
2023/07/31 07:04:02;;;;;;;9.85;2.28;;;16.90;1.00;;;;;;5000886;28;20058;-89
2023/07/31 07:06:54;;;;;;;4.15;2.08;;;17.00;1.00;;;;;;5013217;28;20053;-92
2023/07/31 07:09:45;;;;;;;4.82;2.30;;;17.20;99.90;;;;;;5010692;28;20125;-90
2023/07/31 07:12:36;;;;;;;12.30;2.17;;;17.20;99.90;;;;;;4998267;28;20121;-90
2023/07/31 07:15:48;;;;;;;;;;;;;;;;;;;;;
2023/07/31 07:18:41;;;;;;;5.90;2.10;;;17.60;99.90;;;;;;5007655;28;20057;-89
2023/07/31 07:22:03;;;;;;;3.85;1.80;;;17.60;99.90;;;;;;5005974;28;20485;-92
2023/07/31 07:25:20;;;;;;;3.88;1.98;;;17.30;99.90;;;;;;5012091;28;20102;-91
2023/07/31 07:28:08;;;;;;;6.53;2.15;;;17.10;99.90;;;;;;5002553;28;20046;-85
2023/07/31 07:30:55;;;;;;;6.65;2.80;;;17.20;99.90;;;;;;5007373;28;20112;-83
2023/07/31 07:33:43;;;;;;;7.93;2.55;;;17.40;99.90;;;;;;5003179;28;20115;-85
2023/07/31 07:36:32;;;;;;;5.97;2.20;;;17.30;99.90;;;;;;5007928;28;20375;-87
2023/07/31 07:39:20;;;;;;;5.60;2.25;;;17.00;99.90;;;;;;5008891;28;20053;-88
2023/07/31 07:42:08;;;;;;;7.38;2.38;;;17.00;99.90;;;;;;5009232;28;20476;-87
2023/07/31 07:44:57;;;;;;;4.88;2.10;;;17.00;99.90;;;;;;5005810;28;20058;-87
2023/07/31 07:47:45;;;;;;;5.80;2.40;;;17.30;99.90;;;;;;5013598;28;20085;-87
2023/07/31 07:50:33;;;;;;;5.32;2.35;;;17.60;99.90;;;;;;5015249;28;20060;-88
2023/07/31 07:53:20;;;;;;;5.47;2.05;;;17.90;99.90;;;;;;5012601;28;20129;-85
2023/07/31 07:56:08;;;;;;;6.88;2.00;;;18.10;99.90;;;;;;5011273;28;20142;-86
2023/07/31 07:59:03;;;;;;;4.45;2.28;;;17.80;99.90;;;;;;5014880;28;20499;-89
2023/07/31 08:01:53;;;;;;;7.90;2.38;;;17.90;99.90;;;;;;5013183;28;20413;-90
2023/07/31 08:04:41;;;;;;;6.00;2.15;;;18.40;99.90;;;;;;5016499;28;20465;-88
2023/07/31 08:07:32;;;;;;;9.25;4.15;;;18.80;99.90;;;;;;5013581;28;20050;-88
2023/07/31 08:10:19;;;;;;;6.63;2.67;;;19.00;99.90;;;;;;5011237;28;20049;-88
2023/07/31 08:13:09;;;;;;;5.85;2.65;;;19.20;99.90;;;;;;5015425;28;20097;-89
2023/07/31 08:15:56;;;;;;;10.43;2.53;;;19.30;99.90;;;;;;5014195;28;20156;-88
2023/07/31 08:18:44;;;;;;;6.72;2.20;;;19.20;99.90;;;;;;5011811;28;20046;-87
2023/07/31 08:21:32;;;;;;;7.50;2.40;;;19.00;99.90;;;;;;5017855;28;20042;-88
2023/07/31 08:24:25;;;;;;;4.85;2.28;;;19.50;99.90;;;;;;5007043;28;20060;-90
2023/07/31 08:27:15;;;;;;;3.55;1.88;;;19.60;99.90;;;;;;5010567;28;20046;-89
2023/07/31 08:30:02;;;;;;;5.72;2.38;;;19.70;99.90;;;;;;5013814;28;20057;-89
2023/07/31 08:32:51;;;;;;;5.57;2.05;;;20.00;99.90;;;;;;5016024;28;20046;-89
2023/07/31 08:35:39;;;;;;;5.15;1.73;;;20.50;99.90;;;;;;5024961;28;20129;-86
2023/07/31 08:38:54;;;;;;;5.05;2.28;;;20.40;99.90;;;;;;5003019;28;20045;-89
2023/07/31 08:41:47;;;;;;;7.65;2.30;;;20.10;99.90;;;;;;5012498;28;20137;-89
2023/07/31 08:44:37;;;;;;;6.97;2.25;;;19.70;99.90;;;;;;5008351;28;20094;-87
2023/07/31 08:47:25;;;;;;;6.50;2.60;;;19.70;99.90;;;;;;5014325;28;20052;-86
2023/07/31 08:50:14;;;;;;;7.18;2.53;;;19.80;99.90;;;;;;5013483;28;20480;-88
2023/07/31 08:53:01;;;;;;;6.68;2.70;;;19.80;99.90;;;;;;5010193;28;20041;-90
2023/07/31 08:55:53;;;;;;;7.68;2.97;;;19.70;99.90;;;;;;5011473;28;20373;-90
2023/07/31 08:58:44;;;;;;;5.60;2.40;;;19.50;99.90;;;;;;5018595;28;20042;-87
2023/07/31 09:01:40;;;;;;;7.05;2.72;;;19.20;99.90;;;;;;5008148;28;20177;-91
2023/07/31 09:04:28;;;;;;;8.73;2.28;;;19.20;99.90;;;;;;5008286;28;20062;-86
2023/07/31 09:07:21;;;;;;;8.88;2.67;;;19.30;99.90;;;;;;5004821;28;20199;-90
2023/07/31 09:10:12;;;;;;;6.15;2.33;;;19.30;99.90;;;;;;5004859;28;20096;-88
2023/07/31 09:12:59;;;;;;;6.85;2.78;;;19.40;99.90;;;;;;5008945;28;20046;-88
2023/07/31 09:15:50;;;;;;;10.00;2.78;;;18.90;99.90;;;;;;5011311;28;20041;-86
2023/07/31 09:18:55;;;;;;;6.55;2.60;;;19.00;99.90;;;;;;5009706;28;20130;-88
2023/07/31 09:21:49;;;;;;;7.18;2.75;;;19.30;99.90;;;;;;5007678;28;20060;-86
2023/07/31 09:24:45;;;;;;;6.65;2.63;;;19.80;99.90;;;;;;5015899;28;20207;-89
2023/07/31 09:27:49;;;;;;;9.77;2.45;;;19.70;99.90;;;;;;5006937;28;20054;-85
2023/07/31 09:30:48;;;;;;;5.93;2.30;;;20.00;99.90;;;;;;5022189;28;20042;-86
2023/07/31 09:34:02;;;;;;;7.22;2.67;;;19.80;99.90;;;;;;5014672;28;20050;-85
2023/07/31 09:37:13;;;;;;;9.05;2.60;;;19.90;99.90;;;;;;4965337;28;20046;-87
2023/07/31 09:40:24;;;;;;;7.35;2.58;;;20.10;99.90;;;;;;5014899;28;20121;-83
2023/07/31 09:43:19;;;;;;;6.38;2.78;;;20.40;99.90;;;;;;5007921;28;20045;-90
2023/07/31 09:46:15;;;;;;;7.53;2.50;;;20.20;99.90;;;;;;5009077;28;20057;-86
2023/07/31 09:49:13;;;;;;;8.70;2.78;;;20.30;99.90;;;;;;5014767;28;20515;-89
2023/07/31 09:52:14;;;;;;;8.50;2.95;;;20.40;99.90;;;;;;5017296;28;20053;-86
2023/07/31 09:55:02;;;;;;;8.88;2.70;;;20.90;99.90;;;;;;5007512;28;20061;-88
2023/07/31 09:57:50;;;;;;;6.95;2.65;;;21.40;99.90;;;;;;5006791;28;20050;-91
2023/07/31 10:00:39;;;;;;;6.43;2.90;;;22.10;99.90;;;;;;5013622;28;20041;-90
2023/07/31 10:03:40;;;;;;;5.25;2.47;;;22.30;99.90;;;;;;5008970;28;20099;-89
2023/07/31 10:06:35;;;;;;;6.00;2.45;;;22.90;99.90;;;;;;5006407;28;20101;-89
2023/07/31 10:09:29;;;;;;;12.32;3.25;;;22.80;99.90;;;;;;5023287;28;20171;-90
2023/07/31 10:12:21;;;;;;;5.10;2.20;;;22.80;99.90;;;;;;5009513;28;21661;-93
2023/07/31 10:15:09;;;;;;;6.32;2.28;;;23.20;99.90;;;;;;5008768;28;20077;-91
2023/07/31 10:17:58;;;;;;;4.70;2.20;;;23.50;99.90;;;;;;5007277;28;20346;-91
2023/07/31 10:20:47;;;;;;;7.35;2.67;;;23.30;99.00;;;;;;5009900;28;20142;-89
2023/07/31 10:23:38;;;;;;;4.38;2.28;;;22.40;93.40;;;;;;5010426;28;20067;-89
2023/07/31 10:26:26;;;;;;;4.85;2.42;;;22.90;93.20;;;;;;5009667;28;20046;-89
2023/07/31 10:29:18;;;;;;;4.60;2.30;;;23.00;89.90;;;;;;5007646;28;20126;-86
2023/07/31 10:32:11;;;;;;;11.38;2.65;;;23.10;86.50;;;;;;5010878;28;20046;-89
2023/07/31 10:35:00;;;;;;;4.35;2.38;;;23.60;90.40;;;;;;5011796;28;20050;-91
2023/07/31 10:37:51;;;;;;;4.20;2.10;;;23.40;91.80;;;;;;5006511;28;20037;-87
2023/07/31 10:40:44;;;;;;;7.60;2.42;;;22.80;85.60;;;;;;5008784;28;20119;-88
2023/07/31 10:43:38;;;;;;;6.50;2.60;;;21.80;83.80;;;;;;5006622;28;20054;-89
2023/07/31 10:46:27;;;;;;;6.75;3.50;;;22.10;91.90;;;;;;5002995;28;20049;-91
2023/07/31 10:49:23;;;;;;;7.78;2.95;;;22.40;99.90;;;;;;5004484;28;20070;-87
2023/07/31 10:52:13;;;;;;;5.70;2.55;;;22.40;97.60;;;;;;5026726;28;20349;-89
2023/07/31 10:55:26;;;;;;;6.00;2.85;;;22.40;97.60;;;;;;5016036;28;20076;-89
2023/07/31 10:58:27;;;;;;;6.47;2.20;;;22.40;93.70;;;;;;5008942;28;20073;-88
2023/07/31 11:01:17;;;;;;;5.80;2.65;;;22.30;96.30;;;;;;5006698;28;20054;-88
2023/07/31 11:04:11;;;;;;;7.60;2.67;;;21.90;98.00;;;;;;5006521;28;20050;-87
2023/07/31 11:07:04;;;;;;;7.75;2.67;;;21.80;91.90;;;;;;5004717;28;20460;-87
2023/07/31 11:09:51;;;;;;;6.28;2.30;;;21.70;97.40;;;;;;5006062;28;20743;-90
2023/07/31 11:12:39;;;;;;;7.10;2.60;;;21.50;95.70;;;;;;5012357;28;20053;-89
2023/07/31 11:15:27;;;;;;;6.85;2.97;;;21.20;95.20;;;;;;5010564;28;20061;-89
2023/07/31 11:18:16;;;;;;;7.50;2.83;;;21.00;94.80;;;;;;5019067;28;20385;-89
2023/07/31 11:21:08;;;;;;;6.10;3.20;;;21.30;98.70;;;;;;5010723;28;20160;-90
2023/07/31 11:23:58;;;;;;;5.03;2.80;;;21.60;94.40;;;;;;5010984;28;20120;-87
2023/07/31 11:26:51;;;;;;;3.90;2.45;;;21.50;97.20;;;;;;5011474;28;20073;-87
2023/07/31 11:29:39;;;;;;;9.18;2.72;;;21.10;95.80;;;;;;5008134;28;20045;-92
2023/07/31 11:32:32;;;;;;;7.57;2.20;;;20.90;99.20;;;;;;5014570;28;20045;-91
2023/07/31 11:35:26;;;;;;;5.70;2.75;;;20.90;97.00;;;;;;5009088;28;20042;-90
2023/07/31 11:38:36;;;;;;;5.90;2.58;;;20.80;94.30;;;;;;5010358;28;20035;-91
2023/07/31 11:41:24;;;;;;;7.43;2.60;;;20.70;94.10;;;;;;5008545;28;20128;-88
2023/07/31 11:44:14;;;;;;;4.07;2.58;;;20.80;94.90;;;;;;5006946;28;20458;-91
2023/07/31 11:47:16;;;;;;;5.65;2.40;;;20.80;96.30;;;;;;5005969;28;20057;-90
2023/07/31 11:50:05;;;;;;;5.85;2.63;;;20.90;95.30;;;;;;5006411;28;20543;-89
2023/07/31 11:52:59;;;;;;;7.35;2.92;;;21.10;95.40;;;;;;5011576;28;20496;-89
2023/07/31 11:55:47;;;;;;;4.45;2.65;;;21.20;94.90;;;;;;5012268;28;20030;-91
2023/07/31 11:58:36;;;;;;;7.90;2.83;;;21.20;93.20;;;;;;5010602;28;20105;-91
2023/07/31 12:01:24;;;;;;;5.75;2.40;;;21.00;99.90;;;;;;5014009;28;20050;-89
2023/07/31 12:04:15;;;;;;;9.50;3.05;;;20.70;99.90;;;;;;5020722;28;20040;-87
2023/07/31 12:07:21;;;;;;;5.20;2.90;;;20.50;99.30;;;;;;5018312;28;20058;-89
2023/07/31 12:11:30;;;;;;;9.05;2.88;;;20.60;99.90;;;;;;5017108;28;20046;-89
2023/07/31 12:15:20;;;;;;;;;;;;;;;;;;;;;
2023/07/31 12:23:29;;;;;;;;;;;;;;;;;;;;;
2023/07/31 12:26:49;;;;;;;4.63;2.40;;;22.10;99.90;;;;;;4898170;29;20045;-91
2023/07/31 12:34:25;;;;;;;7.55;2.50;;;21.40;99.90;;;;;;4853331;29;20139;-92
2023/07/31 12:38:08;;;;;;;6.57;2.90;;;22.10;99.90;;;;;;4991775;28;20041;-90
2023/07/31 12:41:39;;;;;;;5.10;2.05;;;23.10;99.90;;;;;;5006661;28;20129;-92
2023/07/31 12:44:57;;;;;;;7.03;2.55;;;23.70;99.90;;;;;;5012471;28;20054;-91
2023/07/31 12:47:52;;;;;;;5.63;2.30;;;26.00;99.90;;;;;;5011347;28;20460;-90
2023/07/31 12:51:07;;;;;;;;;;;27.80;99.90;;;;;;5009571;28;20644;-91
2023/07/31 12:54:03;;;;;;;5.13;2.65;;;27.30;99.90;;;;;;5006481;28;19931;-89
2023/07/31 12:56:51;;;;;;;;;;;26.30;96.70;;;;;;5010829;28;20073;-92
2023/07/31 13:17:13;;;;;;;;;;;;;;;;;;;;;
2023/07/31 13:20:25;;;;;;;5.05;2.33;;;29.70;95.10;;;;;;4911667;29;20071;-89
2023/07/31 13:27:16;;;;;;;;;;;;;;;;;;;;;
2023/07/31 13:30:38;;;;;;;;;;;;;;;;;;;;;
2023/07/31 13:38:06;;;;;;;9.82;2.40;;;23.50;65.50;;;;;;4897392;29;20132;-90
2023/07/31 13:41:32;;;;;;;;;;;;;;;;;;;;;
2023/07/31 13:44:46;;;;;;;7.50;2.70;;;23.00;75.00;;;;;;4861245;29;20088;-89
2023/07/31 13:47:37;;;;;;;6.20;2.55;;;22.60;83.70;;;;;;4915435;28;20047;-89
2023/07/31 13:50:36;;;;;;;;;;;;;;;;;;;;;
2023/07/31 13:54:25;;;;;;;;;;;;;;;;;;;;;
2023/07/31 13:57:29;;;;;;;5.38;2.60;;;22.10;76.80;;;;;;5007028;28;20097;-91
2023/07/31 14:00:21;;;;;;;6.97;2.47;;;22.10;79.70;;;;;;5008777;28;20054;-90
2023/07/31 14:03:09;;;;;;;4.93;2.70;;;22.10;84.10;;;;;;5009151;28;20056;-92
2023/07/31 14:05:57;;;;;;;5.20;2.78;;;22.30;79.80;;;;;;5009196;28;20061;-91
2023/07/31 14:08:48;;;;;;;4.93;2.67;;;22.40;64.60;;;;;;5009506;28;20058;-90
2023/07/31 14:11:40;;;;;;;8.45;2.78;;;22.30;66.30;;;;;;5013980;28;20049;-90
2023/07/31 14:14:29;;;;;;;7.35;2.70;;;22.00;64.70;;;;;;5012815;28;20068;-90
2023/07/31 14:17:16;;;;;;;5.78;2.83;;;21.80;67.10;;;;;;5019759;28;20036;-87
2023/07/31 14:20:12;;;;;;;7.88;2.78;;;21.80;72.50;;;;;;5024121;28;20029;-84
2023/07/31 14:23:01;;;;;;;4.53;2.88;;;21.80;83.10;;;;;;5026874;28;20030;-91
2023/07/31 14:25:48;;;;;;;5.47;2.58;;;21.80;69.50;;;;;;5022064;28;20070;-89
2023/07/31 14:28:41;;;;;;;4.40;2.72;;;21.80;77.00;;;;;;5018632;28;20065;-90
2023/07/31 14:31:40;;;;;;;7.53;3.08;;;21.70;74.90;;;;;;5009525;28;20416;-91
2023/07/31 14:34:28;;;;;;;4.63;2.80;;;21.60;82.90;;;;;;5005365;28;20134;-91
2023/07/31 14:37:19;;;;;;;6.40;2.75;;;21.40;87.10;;;;;;5010233;28;20056;-91
2023/07/31 14:40:11;;;;;;;3.75;2.30;;;21.50;87.20;;;;;;5012291;28;20053;-90
2023/07/31 14:43:04;;;;;;;;;;;21.40;92.00;;;;;;5010331;28;20046;-89
2023/07/31 14:45:57;;;;;;;4.60;2.72;;;21.40;92.10;;;;;;5013073;28;20249;-88
2023/07/31 14:48:48;;;;;;;;;;;21.40;92.50;;;;;;5019922;28;20042;-90
2023/07/31 14:51:40;;;;;;;6.63;3.10;;;21.50;79.50;;;;;;5019601;28;19929;-90
2023/07/31 14:54:30;;;;;;;4.43;2.58;;;21.50;81.10;;;;;;5017507;28;20058;-89
2023/07/31 14:57:17;;;;;;;4.85;2.22;;;21.60;75.50;;;;;;5013539;28;20053;-88
2023/07/31 15:00:07;;;;;;;3.65;2.55;;;21.80;74.20;;;;;;5014076;28;20064;-89
2023/07/31 15:02:54;;;;;;;5.28;2.63;;;22.10;99.90;;;;;;5013708;28;20060;-90
2023/07/31 15:05:43;;;;;;;9.15;3.03;;;22.10;93.10;;;;;;5012000;28;20049;-89
2023/07/31 15:08:33;;;;;;;4.32;2.75;;;22.00;96.70;;;;;;5006499;28;20347;-91
2023/07/31 15:11:28;;;;;;;6.72;2.63;;;22.00;99.90;;;;;;5004790;28;20046;-89
2023/07/31 15:14:16;;;;;;;4.93;2.72;;;21.90;99.90;;;;;;5009603;28;20381;-89
2023/07/31 15:17:04;;;;;;;6.18;3.20;;;21.60;97.60;;;;;;5008311;28;20121;-91
2023/07/31 15:19:52;;;;;;;4.85;2.50;;;21.60;75.20;;;;;;5008709;28;20042;-91
2023/07/31 15:22:39;;;;;;;7.40;2.90;;;21.70;84.20;;;;;;5007236;28;20562;-90
2023/07/31 15:25:29;;;;;;;6.80;2.72;;;21.80;86.50;;;;;;5007257;28;20100;-87
2023/07/31 15:28:50;;;;;;;5.32;2.90;;;21.70;92.70;;;;;;5009175;28;20448;-89
2023/07/31 15:31:51;;;;;;;6.38;2.53;;;21.60;92.30;;;;;;5006971;28;20212;-89
2023/07/31 15:35:29;;;;;;;4.07;2.65;;;21.40;94.40;;;;;;5011526;28;20042;-90
2023/07/31 15:38:53;;;;;;;6.63;2.88;;;21.50;88.80;;;;;;5009797;28;20109;-90
2023/07/31 15:42:23;;;;;;;11.20;3.17;;;21.40;82.50;;;;;;5010419;28;20050;-92
2023/07/31 15:45:55;;;;;;;5.10;3.03;;;21.50;71.40;;;;;;5018116;28;20052;-93
2023/07/31 15:48:57;;;;;;;7.75;2.88;;;21.50;85.40;;;;;;5008042;28;20042;-93
2023/07/31 15:53:26;;;;;;;;;;;;;;;;;;;;;
2023/07/31 15:56:43;;;;;;;6.82;2.80;;;21.80;79.50;;;;;;4951038;28;20043;-90
2023/07/31 15:59:36;;;;;;;4.88;2.50;;;22.00;95.70;;;;;;4956711;29;20427;-89